createdAt,value
2019-03-11T00:02:15.223Z,4.39
2019-03-11T00:04:44.059Z,4.37
2019-03-11T00:07:13.800Z,4.35
2019-03-11T00:09:42.659Z,4.33
2019-03-11T00:12:11.434Z,4.35
2019-03-11T00:14:40.232Z,4.42
2019-03-11T00:17:09.697Z,4.48
2019-03-11T00:19:38.491Z,4.55
2019-03-11T00:22:07.281Z,4.61
2019-03-11T00:24:36.899Z,4.66
2019-03-11T00:27:07.080Z,4.70
2019-03-11T00:29:35.943Z,4.72
2019-03-11T00:32:04.861Z,4.72
2019-03-11T00:34:33.806Z,4.67
2019-03-11T00:37:02.611Z,4.63
2019-03-11T00:39:31.428Z,4.61
2019-03-11T00:42:00.324Z,4.56
2019-03-11T00:44:29.109Z,4.47
2019-03-11T00:46:58.886Z,4.38
2019-03-11T00:49:27.963Z,4.31
2019-03-11T00:51:56.784Z,4.25
2019-03-11T00:54:25.579Z,4.21
2019-03-11T00:56:54.870Z,4.16
2019-03-11T00:59:23.705Z,4.16
2019-03-11T01:01:52.499Z,4.19
2019-03-11T01:04:21.286Z,4.23
2019-03-11T01:06:50.103Z,4.27
2019-03-11T01:09:18.896Z,4.32
2019-03-11T01:11:47.673Z,4.32
2019-03-11T01:14:17.011Z,4.35
2019-03-11T01:16:46.437Z,4.38
2019-03-11T01:19:15.271Z,4.37
2019-03-11T01:21:44.138Z,4.32
2019-03-11T01:24:13.308Z,4.33
2019-03-11T01:26:43.169Z,4.32
2019-03-11T01:29:11.943Z,4.30
2019-03-11T01:31:40.788Z,4.31
2019-03-11T01:34:09.660Z,4.34
2019-03-11T01:36:39.152Z,4.37
2019-03-11T01:39:07.914Z,4.39
2019-03-11T01:41:36.783Z,4.35
2019-03-11T01:44:05.599Z,4.32
2019-03-11T01:46:34.544Z,4.28
2019-03-11T01:49:03.387Z,4.23
2019-03-11T01:51:32.562Z,4.19
2019-03-11T01:54:01.379Z,4.20
2019-03-11T01:56:31.430Z,4.21
2019-03-11T01:59:00.280Z,4.20
2019-03-11T02:01:29.486Z,4.14
2019-03-11T02:03:58.318Z,4.07
2019-03-11T02:06:27.432Z,4.00
2019-03-11T02:08:56.336Z,3.98
2019-03-11T02:11:25.261Z,3.95
2019-03-11T02:13:54.289Z,3.88
2019-03-11T02:16:23.079Z,3.84
2019-03-11T02:18:52.150Z,3.81
2019-03-11T02:21:20.923Z,3.82
2019-03-11T02:23:49.722Z,3.77
2019-03-11T02:26:18.506Z,3.71
2019-03-11T02:28:47.303Z,3.68
2019-03-11T02:31:16.460Z,3.64
2019-03-11T02:33:45.242Z,3.59
2019-03-11T02:36:14.111Z,3.57
2019-03-11T02:38:42.956Z,3.56
2019-03-11T02:41:11.738Z,3.53
2019-03-11T02:43:42.366Z,3.57
2019-03-11T02:46:11.302Z,3.64
2019-03-11T02:48:40.081Z,3.68
2019-03-11T02:51:09.885Z,3.69
2019-03-11T02:53:38.680Z,3.73
2019-03-11T02:56:07.462Z,3.74
2019-03-11T02:58:36.347Z,3.73
2019-03-11T03:01:09.471Z,3.69
2019-03-11T03:03:40.518Z,3.69
2019-03-11T03:06:13.725Z,3.74
2019-03-11T03:08:44.949Z,3.79
2019-03-11T03:11:13.871Z,3.79
2019-03-11T03:13:44.582Z,3.75
2019-03-11T03:16:14.119Z,3.71
2019-03-11T03:18:42.985Z,3.69
2019-03-11T03:21:12.559Z,3.70
2019-03-11T03:23:41.384Z,3.71
2019-03-11T03:26:10.252Z,3.70
2019-03-11T03:28:39.094Z,3.68
2019-03-11T03:31:08.263Z,3.63
2019-03-11T03:33:37.185Z,3.58
2019-03-11T03:36:06.077Z,3.54
2019-03-11T03:38:34.910Z,3.47
2019-03-11T03:41:04.995Z,3.45
2019-03-11T03:43:33.729Z,3.39
2019-03-11T03:46:17.468Z,3.36
2019-03-11T03:48:31.494Z,3.33
2019-03-11T03:51:00.266Z,3.29
2019-03-11T03:53:29.112Z,3.27
2019-03-11T03:55:57.926Z,3.23
2019-03-11T03:58:26.775Z,3.21
2019-03-11T04:00:56.456Z,3.21
2019-03-11T04:03:25.250Z,3.19
2019-03-11T04:05:54.164Z,3.15
2019-03-11T04:08:22.948Z,3.12
2019-03-11T04:10:51.723Z,3.13
2019-03-11T04:13:21.177Z,3.15
2019-03-11T04:15:49.972Z,3.17
2019-03-11T04:18:18.778Z,3.21
2019-03-11T04:20:53.967Z,3.30
2019-03-11T04:23:22.788Z,3.38
2019-03-11T04:25:55.296Z,3.44
2019-03-11T04:28:24.143Z,3.49
2019-03-11T04:30:53.028Z,3.52
2019-03-11T04:33:21.891Z,3.54
2019-03-11T04:35:50.730Z,3.58
2019-03-11T04:38:20.740Z,3.61
2019-03-11T04:40:49.532Z,3.66
2019-03-11T04:43:18.443Z,3.66
2019-03-11T04:45:47.232Z,3.60
2019-03-11T04:48:16.059Z,3.59
2019-03-11T04:50:44.874Z,3.58
2019-03-11T04:53:20.380Z,3.51
2019-03-11T04:55:50.055Z,3.43
2019-03-11T04:58:18.832Z,3.37
2019-03-11T05:00:47.643Z,3.36
2019-03-11T05:03:16.458Z,3.36
2019-03-11T05:05:46.511Z,3.34
2019-03-11T05:08:16.298Z,3.33
2019-03-11T05:10:48.502Z,3.35
2019-03-11T05:13:17.414Z,3.37
2019-03-11T05:15:46.216Z,3.41
2019-03-11T05:18:15.010Z,3.43
2019-03-11T05:20:43.871Z,3.45
2019-03-11T05:23:13.514Z,3.45
2019-03-11T05:25:42.386Z,3.41
2019-03-11T05:28:11.171Z,3.39
2019-03-11T05:30:40.021Z,3.33
2019-03-11T05:33:08.799Z,3.30
2019-03-11T05:35:37.583Z,3.28
2019-03-11T05:38:06.402Z,3.25
2019-03-11T05:40:35.796Z,3.22
2019-03-11T05:43:05.186Z,3.20
2019-03-11T05:45:35.046Z,3.21
2019-03-11T05:48:04.945Z,3.25
2019-03-11T05:50:33.763Z,3.28
2019-03-11T05:53:04.159Z,3.32
2019-03-11T05:55:32.941Z,3.37
2019-03-11T05:58:01.781Z,3.40
2019-03-11T06:00:30.970Z,3.42
2019-03-11T06:03:01.082Z,3.44
2019-03-11T06:05:30.531Z,3.42
2019-03-11T06:07:59.306Z,3.44
2019-03-11T06:10:28.103Z,3.45
2019-03-11T06:12:56.925Z,3.48
2019-03-11T06:15:25.733Z,3.50
2019-03-11T06:17:54.727Z,3.50
2019-03-11T06:20:31.751Z,3.48
2019-03-11T06:23:01.131Z,3.47
2019-03-11T06:25:30.806Z,3.49
2019-03-11T06:27:59.649Z,3.50
2019-03-11T06:30:28.411Z,3.51
2019-03-11T06:32:57.204Z,3.52
2019-03-11T06:35:25.977Z,3.54
2019-03-11T06:37:54.759Z,3.56
2019-03-11T06:40:23.581Z,3.57
2019-03-11T06:42:52.357Z,3.61
2019-03-11T06:45:21.206Z,3.64
2019-03-11T06:47:50.125Z,3.67
2019-03-11T06:50:18.965Z,3.70
2019-03-11T06:52:47.757Z,3.75
2019-03-11T06:55:16.549Z,3.77
2019-03-11T06:57:45.439Z,3.77
2019-03-11T07:00:15.174Z,3.82
2019-03-11T07:02:44.045Z,3.85
2019-03-11T07:05:20.172Z,3.90
2019-03-11T07:07:42.278Z,3.90
2019-03-11T07:10:11.090Z,3.83
2019-03-11T07:12:39.920Z,3.67
2019-03-11T07:15:09.235Z,3.49
2019-03-11T07:17:38.128Z,3.41
2019-03-11T07:20:09.186Z,3.39
2019-03-11T07:22:37.956Z,3.37
2019-03-11T07:25:07.482Z,3.43
2019-03-11T07:27:36.276Z,3.49
2019-03-11T07:30:06.364Z,3.60
2019-03-11T07:32:36.088Z,3.75
2019-03-11T07:35:08.798Z,3.84
2019-03-11T07:37:34.076Z,3.88
2019-03-11T07:40:03.016Z,3.87
2019-03-11T07:42:31.891Z,3.90
2019-03-11T07:45:01.290Z,3.97
2019-03-11T07:47:30.118Z,4.05
2019-03-11T07:49:58.910Z,4.14
2019-03-11T07:52:27.696Z,4.19
2019-03-11T07:54:57.508Z,4.26
2019-03-11T07:57:26.314Z,4.34
2019-03-11T07:59:55.109Z,4.42
2019-03-11T08:02:23.890Z,4.50
2019-03-11T08:04:53.359Z,4.62
2019-03-11T08:07:22.171Z,4.66
2019-03-11T08:09:51.036Z,4.68
2019-03-11T08:12:19.858Z,4.69
2019-03-11T08:14:48.655Z,4.78
2019-03-11T08:17:19.302Z,4.95
2019-03-11T08:19:48.078Z,5.10
2019-03-11T08:22:16.886Z,5.28
2019-03-11T08:24:46.202Z,5.41
2019-03-11T08:27:15.981Z,5.47
2019-03-11T08:29:44.806Z,5.45
2019-03-11T08:32:13.596Z,5.46
2019-03-11T08:34:42.440Z,5.59
2019-03-11T08:37:11.245Z,5.76
2019-03-11T08:39:40.159Z,5.77
2019-03-11T08:42:09.199Z,5.74
2019-03-11T08:44:37.968Z,5.64
2019-03-11T08:47:06.758Z,5.51
2019-03-11T08:49:35.557Z,5.62
2019-03-11T08:52:05.390Z,5.84
2019-03-11T08:54:33.193Z,6.15
2019-03-11T08:57:02.106Z,6.32
2019-03-11T08:59:30.923Z,6.42
2019-03-11T09:01:59.712Z,6.35
2019-03-11T09:04:28.549Z,6.29
2019-03-11T09:06:57.350Z,6.18
2019-03-11T09:09:26.742Z,6.06
2019-03-11T09:11:55.040Z,5.93
2019-03-11T09:14:23.951Z,5.89
2019-03-11T09:16:52.814Z,5.87
2019-03-11T09:19:21.684Z,5.86
2019-03-11T09:21:50.472Z,5.84
2019-03-11T09:24:19.729Z,5.84
2019-03-11T09:26:48.050Z,5.82
2019-03-11T09:29:16.843Z,5.85
2019-03-11T09:31:45.621Z,5.91
2019-03-11T09:34:14.662Z,6.24
2019-03-11T09:36:44.701Z,6.43
2019-03-11T09:39:13.492Z,6.54
2019-03-11T09:41:42.293Z,6.80
2019-03-11T09:44:11.085Z,7.01
2019-03-11T09:46:39.863Z,7.28
2019-03-11T09:49:08.708Z,7.52
2019-03-11T09:51:37.496Z,7.73
2019-03-11T09:54:06.289Z,8.03
2019-03-11T09:56:42.933Z,8.31
2019-03-11T09:59:03.972Z,8.37
2019-03-11T10:01:32.798Z,8.52
2019-03-11T10:04:01.580Z,8.66
2019-03-11T10:06:30.415Z,8.85
2019-03-11T10:09:00.064Z,9.11
2019-03-11T10:11:28.941Z,9.43
2019-03-11T10:13:57.712Z,9.50
2019-03-11T10:16:29.829Z,9.51
2019-03-11T10:18:58.594Z,9.86
2019-03-11T10:21:27.876Z,10.29
2019-03-11T10:23:59.197Z,10.74
2019-03-11T10:26:25.528Z,10.99
2019-03-11T10:28:54.389Z,10.96
2019-03-11T10:31:23.195Z,10.54
2019-03-11T10:33:51.984Z,10.12
2019-03-11T10:36:20.873Z,9.64
2019-03-11T10:38:49.658Z,9.21
2019-03-11T10:41:18.597Z,8.92
2019-03-11T10:43:47.355Z,9.01
2019-03-11T10:46:16.224Z,9.22
2019-03-11T10:48:44.983Z,9.46
2019-03-11T10:51:13.777Z,9.63
2019-03-11T10:53:42.580Z,9.55
2019-03-11T10:56:11.378Z,9.19
2019-03-11T10:58:40.171Z,8.94
2019-03-11T11:01:09.949Z,8.85
2019-03-11T11:03:37.830Z,9.18
2019-03-11T11:06:06.626Z,9.38
2019-03-11T11:08:35.417Z,9.58
2019-03-11T11:11:04.203Z,9.88
2019-03-11T11:13:33.050Z,10.11
2019-03-11T11:16:01.836Z,10.32
2019-03-11T11:18:30.632Z,10.51
2019-03-11T11:20:59.423Z,10.29
2019-03-11T11:23:28.219Z,10.02
2019-03-11T11:25:57.196Z,10.22
2019-03-11T11:28:26.003Z,10.60
2019-03-11T11:30:54.803Z,10.95
2019-03-11T11:33:23.596Z,11.34
2019-03-11T11:35:52.396Z,11.34
2019-03-11T11:38:21.174Z,11.43
2019-03-11T11:40:49.968Z,11.33
2019-03-11T11:43:18.743Z,11.40
2019-03-11T11:45:47.559Z,11.38
2019-03-11T11:48:16.343Z,11.29
2019-03-11T11:50:45.191Z,11.32
2019-03-11T11:53:13.980Z,11.37
2019-03-11T11:55:42.817Z,11.68
2019-03-11T11:58:11.603Z,12.05
2019-03-11T12:00:41.521Z,12.36
2019-03-11T12:03:10.315Z,12.22
2019-03-11T12:05:39.111Z,12.08
2019-03-11T12:08:07.913Z,12.10
2019-03-11T12:10:36.686Z,12.18
2019-03-11T12:13:05.513Z,12.17
2019-03-11T12:15:34.319Z,12.06
2019-03-11T12:18:03.165Z,12.08
2019-03-11T12:20:31.987Z,12.00
2019-03-11T12:23:01.248Z,11.64
2019-03-11T12:25:30.056Z,11.44
2019-03-11T12:27:58.917Z,11.52
2019-03-11T12:30:27.766Z,11.51
2019-03-11T12:32:56.565Z,11.46
2019-03-11T12:35:25.391Z,11.14
2019-03-11T12:37:54.203Z,10.98
2019-03-11T12:40:23.007Z,10.81
2019-03-11T12:42:51.939Z,10.78
2019-03-11T12:45:20.739Z,10.77
2019-03-11T12:47:49.540Z,10.56
2019-03-11T12:50:19.275Z,10.42
2019-03-11T12:52:48.144Z,10.39
2019-03-11T12:55:16.973Z,10.42
2019-03-11T12:57:45.819Z,10.52
2019-03-11T13:00:16.380Z,10.56
2019-03-11T13:02:45.218Z,10.38
2019-03-11T13:05:14.032Z,10.20
2019-03-11T13:07:42.884Z,10.04
2019-03-11T13:10:13.905Z,9.91
2019-03-11T13:12:42.681Z,9.67
2019-03-11T13:15:11.508Z,9.63
2019-03-11T13:17:40.284Z,9.61
2019-03-11T13:20:12.120Z,9.59
2019-03-11T13:22:40.985Z,9.67
2019-03-11T13:25:09.769Z,9.76
2019-03-11T13:27:38.553Z,9.74
2019-03-11T13:30:07.801Z,9.87
2019-03-11T13:32:36.620Z,10.02
2019-03-11T13:35:05.775Z,10.08
2019-03-11T13:38:02.174Z,10.03
2019-03-11T13:40:31.864Z,10.03
2019-03-11T13:43:00.819Z,10.08
2019-03-11T13:45:29.646Z,10.02
2019-03-11T13:51:03.694Z,9.89
2019-03-11T13:53:33.670Z,9.80
2019-03-11T13:56:02.517Z,9.66
2019-03-11T13:58:33.149Z,9.51
2019-03-11T14:01:05.489Z,9.53
2019-03-11T14:03:34.302Z,9.46
2019-03-11T14:09:05.603Z,9.19
2019-03-11T14:11:34.798Z,9.08
2019-03-11T14:14:05.769Z,9.03
2019-03-11T14:16:34.540Z,8.91
2019-03-11T14:19:03.334Z,8.85
2019-03-11T14:21:33.873Z,8.78
2019-03-11T14:24:02.790Z,8.76
2019-03-11T14:26:31.544Z,8.77
2019-03-11T14:29:00.323Z,8.82
2019-03-11T14:31:29.763Z,8.80
2019-03-11T14:33:58.547Z,8.78
2019-03-11T14:36:27.374Z,8.66
2019-03-11T14:38:56.229Z,8.59
2019-03-11T14:41:25.019Z,8.55
2019-03-11T14:43:55.488Z,8.46
2019-03-11T14:46:27.971Z,8.46
2019-03-11T14:48:56.963Z,8.49
2019-03-11T14:51:25.762Z,8.40
2019-03-11T14:53:54.857Z,8.42
2019-03-11T14:56:23.619Z,8.50
2019-03-11T14:58:52.718Z,8.44
2019-03-11T15:01:21.183Z,8.44
2019-03-11T15:03:50.775Z,8.51
2019-03-11T15:06:19.536Z,8.69
2019-03-11T15:08:48.365Z,8.88
2019-03-11T15:11:17.212Z,8.98
2019-03-11T15:13:46.012Z,9.00
2019-03-11T15:16:17.296Z,8.97
2019-03-11T15:18:43.614Z,8.86
2019-03-11T15:21:12.422Z,8.73
2019-03-11T15:23:41.235Z,8.57
2019-03-11T15:26:10.072Z,8.43
2019-03-11T15:28:39.132Z,8.38
2019-03-11T15:31:10.724Z,8.32
2019-03-11T15:33:36.759Z,8.28
2019-03-11T15:36:05.545Z,8.14
2019-03-11T15:38:34.362Z,7.92
2019-03-11T15:41:03.207Z,7.52
2019-03-11T15:43:31.980Z,7.18
2019-03-11T15:46:00.749Z,7.06
2019-03-11T15:48:29.629Z,7.06
2019-03-11T15:50:58.460Z,7.01
2019-03-11T15:53:27.240Z,6.99
2019-03-11T15:55:56.033Z,6.88
2019-03-11T15:58:24.807Z,6.74
2019-03-11T16:00:53.589Z,6.57
2019-03-11T16:03:22.986Z,6.50
2019-03-11T16:05:51.779Z,6.51
2019-03-11T16:08:20.572Z,6.52
2019-03-11T16:10:49.404Z,6.46
2019-03-11T16:13:19.026Z,6.45
2019-03-11T16:15:47.815Z,6.43
2019-03-11T16:18:16.638Z,6.43
2019-03-11T16:20:45.482Z,6.45
2019-03-11T16:23:14.284Z,6.48
2019-03-11T16:25:50.211Z,6.49
2019-03-11T16:28:20.013Z,6.55
2019-03-11T16:30:49.555Z,6.63
2019-03-11T16:33:18.406Z,6.68
2019-03-11T16:35:47.219Z,6.73
2019-03-11T16:38:16.065Z,6.74
2019-03-11T16:40:44.871Z,6.75
2019-03-11T16:43:14.463Z,6.76
2019-03-11T16:45:43.325Z,6.79
2019-03-11T16:48:15.032Z,6.80
2019-03-11T16:50:43.915Z,6.79
2019-03-11T16:53:12.710Z,6.81
2019-03-11T16:55:41.845Z,6.79
2019-03-11T16:58:10.611Z,6.79
2019-03-11T17:00:39.808Z,6.77
2019-03-11T17:03:08.597Z,6.78
2019-03-11T17:05:37.406Z,6.79
2019-03-11T17:08:06.207Z,6.80
2019-03-11T17:10:35.898Z,6.81
2019-03-11T17:13:05.708Z,6.79
2019-03-11T17:15:34.498Z,6.72
2019-03-11T17:18:03.876Z,6.71
2019-03-11T17:20:32.691Z,6.70
2019-03-11T17:23:01.539Z,6.67
2019-03-11T17:25:31.211Z,6.64
2019-03-11T17:28:00.008Z,6.60
2019-03-11T17:30:28.819Z,6.52
2019-03-11T17:32:57.631Z,6.48
2019-03-11T17:35:26.402Z,6.40
2019-03-11T17:37:55.210Z,6.31
2019-03-11T17:40:24.016Z,6.23
2019-03-11T17:42:52.867Z,6.10
2019-03-11T17:45:21.651Z,6.03
2019-03-11T17:47:50.442Z,5.98
2019-03-11T17:50:19.253Z,5.93
2019-03-11T17:52:48.002Z,5.90
2019-03-11T17:55:18.377Z,5.87
2019-03-11T17:57:48.171Z,5.85
2019-03-11T18:00:20.255Z,5.80
2019-03-11T18:02:50.627Z,5.75
2019-03-11T18:05:19.946Z,5.71
2019-03-11T18:07:48.745Z,5.69
2019-03-11T18:10:17.524Z,5.66
2019-03-11T18:12:46.808Z,5.68
2019-03-11T18:15:16.250Z,5.69
2019-03-11T18:17:45.115Z,5.70
2019-03-11T18:20:15.218Z,5.71
2019-03-11T18:22:44.084Z,5.67
2019-03-11T18:25:13.667Z,5.63
2019-03-11T18:27:42.572Z,5.59
2019-03-11T18:30:13.629Z,5.55
2019-03-11T18:32:42.426Z,5.57
2019-03-11T18:35:11.238Z,5.62
2019-03-11T18:37:40.046Z,5.66
2019-03-11T18:40:10.446Z,5.72
2019-03-11T18:42:39.205Z,5.76
2019-03-11T18:45:08.501Z,5.79
2019-03-11T18:47:37.290Z,5.84
2019-03-11T18:50:07.424Z,5.86
2019-03-11T18:52:36.325Z,5.90
2019-03-11T18:55:05.410Z,5.93
2019-03-11T18:57:33.977Z,5.95
2019-03-11T19:00:02.812Z,5.97
2019-03-11T19:02:31.733Z,6.01
2019-03-11T19:05:00.474Z,6.02
2019-03-11T19:07:29.283Z,6.05
2019-03-11T19:09:58.639Z,6.10
2019-03-11T19:12:27.510Z,6.11
2019-03-11T19:14:56.259Z,6.11
2019-03-11T19:17:25.043Z,6.09
2019-03-11T19:19:53.848Z,6.05
2019-03-11T19:22:24.337Z,6.04
2019-03-11T19:24:53.155Z,6.07
2019-03-11T19:27:21.957Z,6.08
2019-03-11T19:29:51.667Z,6.09
2019-03-11T19:32:20.480Z,6.08
2019-03-11T19:34:49.766Z,6.04
2019-03-11T19:37:18.519Z,5.99
2019-03-11T19:39:47.416Z,5.96
2019-03-11T19:42:16.249Z,5.96
2019-03-11T19:44:47.350Z,6.05
2019-03-11T19:47:13.970Z,6.00
2019-03-11T19:49:42.897Z,5.97
2019-03-11T19:52:11.797Z,5.98
2019-03-11T19:54:40.653Z,5.99
2019-03-11T19:57:09.441Z,6.01
2019-03-11T19:59:38.296Z,6.00
2019-03-11T20:02:07.046Z,6.01
2019-03-11T20:04:35.807Z,5.99
2019-03-11T20:07:04.675Z,5.98
2019-03-11T20:09:34.371Z,5.95
2019-03-11T20:12:02.192Z,5.95
2019-03-11T20:14:30.994Z,5.94
2019-03-11T20:16:59.994Z,5.93
2019-03-11T20:19:28.842Z,5.86
2019-03-11T20:21:59.798Z,5.76
2019-03-11T20:24:29.235Z,5.68
2019-03-11T20:26:58.093Z,5.61
2019-03-11T20:29:27.812Z,5.51
2019-03-11T20:31:56.603Z,5.42
2019-03-11T20:34:26.403Z,5.35
2019-03-11T20:36:55.223Z,5.27
2019-03-11T20:39:23.975Z,5.21
2019-03-11T20:41:52.830Z,5.19
2019-03-11T20:44:21.631Z,5.20
2019-03-11T20:46:50.718Z,5.20
2019-03-11T20:49:19.555Z,5.20
2019-03-11T20:51:48.292Z,5.22
2019-03-11T20:54:17.071Z,5.21
2019-03-11T20:56:45.970Z,5.20
2019-03-11T20:59:14.783Z,5.15
2019-03-11T21:01:43.592Z,5.10
2019-03-11T21:04:12.477Z,5.02
2019-03-11T21:06:41.196Z,4.94
2019-03-11T21:09:10.595Z,4.88
2019-03-11T21:11:39.489Z,4.80
2019-03-11T21:14:08.774Z,4.72
2019-03-11T21:16:37.075Z,4.64
2019-03-11T21:19:06.388Z,4.59
2019-03-11T21:21:36.325Z,4.54
2019-03-11T21:24:05.163Z,4.49
2019-03-11T21:26:33.985Z,4.45
2019-03-11T21:29:02.785Z,4.41
2019-03-11T21:31:31.644Z,4.36
2019-03-11T21:34:00.443Z,4.31
2019-03-11T21:36:29.276Z,4.28
2019-03-11T21:38:58.119Z,4.24
2019-03-11T21:41:26.971Z,4.22
2019-03-11T21:43:55.833Z,4.19
2019-03-11T21:46:24.615Z,4.17
2019-03-11T21:48:53.460Z,4.14
2019-03-11T21:51:22.863Z,4.12
2019-03-11T21:53:51.769Z,4.10
2019-03-11T21:56:20.649Z,4.07
2019-03-11T21:58:49.863Z,4.04
2019-03-11T22:01:18.653Z,4.02
2019-03-11T22:03:47.460Z,4.01
2019-03-11T22:06:17.077Z,4.00
2019-03-11T22:08:46.587Z,3.97
2019-03-11T22:11:15.397Z,3.96
2019-03-11T22:13:44.381Z,3.94
2019-03-11T22:16:13.140Z,3.91
2019-03-11T22:18:41.942Z,3.90
2019-03-11T22:21:10.776Z,3.87
2019-03-11T22:23:42.095Z,3.85
2019-03-11T22:26:09.014Z,3.82
2019-03-11T22:28:38.581Z,3.80
2019-03-11T22:31:07.374Z,3.77
2019-03-11T22:33:36.198Z,3.74
2019-03-11T22:36:05.003Z,3.71
2019-03-11T22:38:33.803Z,3.67
2019-03-11T22:41:02.820Z,3.65
2019-03-11T22:43:34.253Z,3.61
2019-03-11T22:46:00.318Z,3.57
2019-03-11T22:48:29.723Z,3.53
2019-03-11T22:50:58.551Z,3.47
2019-03-11T22:53:27.844Z,3.43
2019-03-11T22:55:56.735Z,3.38
2019-03-11T22:58:26.573Z,3.33
2019-03-11T23:00:59.228Z,3.31
2019-03-11T23:03:28.483Z,3.27
2019-03-11T23:05:58.588Z,3.22
2019-03-11T23:08:26.098Z,3.20
2019-03-11T23:10:54.886Z,3.17
2019-03-11T23:13:23.719Z,3.14
2019-03-11T23:15:52.512Z,3.11
2019-03-11T23:18:21.298Z,3.08
2019-03-11T23:20:50.112Z,3.07
2019-03-11T23:23:18.995Z,3.04
2019-03-11T23:25:47.790Z,3.02
2019-03-11T23:28:16.619Z,2.99
2019-03-11T23:30:45.432Z,2.99
2019-03-11T23:33:14.237Z,2.97
2019-03-11T23:35:42.999Z,2.94
2019-03-11T23:38:12.785Z,2.93
2019-03-11T23:40:41.899Z,2.92
2019-03-11T23:43:10.684Z,2.91
2019-03-11T23:45:40.471Z,2.88
2019-03-11T23:48:09.260Z,2.86
2019-03-11T23:50:38.068Z,2.86
2019-03-11T23:53:08.144Z,2.86
2019-03-11T23:55:36.908Z,2.86
2019-03-11T23:58:05.725Z,2.86
